sensor_id;sensor_type;location;lat;lon;timestamp;P1;durP1;ratioP1;P2;durP2;ratioP2
41139;SDS011;26881;48.784;9.192;2024-01-11T00:01:51;61.20;;;31.43;;
41139;SDS011;26881;48.784;9.192;2024-01-11T00:07:13;59.37;;;29.93;;
41139;SDS011;26881;48.784;9.192;2024-01-11T00:12:35;59.37;;;30.37;;
41139;SDS011;26881;48.784;9.192;2024-01-11T00:17:57;58.80;;;31.20;;
41139;SDS011;26881;48.784;9.192;2024-01-11T00:23:19;54.07;;;29.63;;
41139;SDS011;26881;48.784;9.192;2024-01-11T00:28:41;60.43;;;30.20;;
41139;SDS011;26881;48.784;9.192;2024-01-11T00:34:03;53.60;;;30.70;;
41139;SDS011;26881;48.784;9.192;2024-01-11T00:39:25;66.50;;;31.93;;
41139;SDS011;26881;48.784;9.192;2024-01-11T00:44:47;68.37;;;31.93;;
41139;SDS011;26881;48.784;9.192;2024-01-11T00:50:09;59.07;;;30.23;;
41139;SDS011;26881;48.784;9.192;2024-01-11T00:55:31;61.40;;;31.90;;
41139;SDS011;26881;48.784;9.192;2024-01-11T01:00:53;58.50;;;29.63;;
41139;SDS011;26881;48.784;9.192;2024-01-11T01:06:15;61.60;;;31.53;;
41139;SDS011;26881;48.784;9.192;2024-01-11T01:11:37;59.10;;;31.73;;
41139;SDS011;26881;48.784;9.192;2024-01-11T01:16:59;66.20;;;33.60;;
41139;SDS011;26881;48.784;9.192;2024-01-11T01:22:21;60.10;;;30.13;;
41139;SDS011;26881;48.784;9.192;2024-01-11T01:27:43;64.33;;;32.23;;
41139;SDS011;26881;48.784;9.192;2024-01-11T01:33:05;60.70;;;31.47;;
41139;SDS011;26881;48.784;9.192;2024-01-11T01:38:27;59.33;;;30.33;;
41139;SDS011;26881;48.784;9.192;2024-01-11T01:43:49;65.20;;;32.47;;
41139;SDS011;26881;48.784;9.192;2024-01-11T01:49:10;58.37;;;31.73;;
41139;SDS011;26881;48.784;9.192;2024-01-11T01:54:33;61.87;;;32.53;;
41139;SDS011;26881;48.784;9.192;2024-01-11T01:59:55;63.77;;;33.50;;
41139;SDS011;26881;48.784;9.192;2024-01-11T02:05:17;63.60;;;33.53;;
41139;SDS011;26881;48.784;9.192;2024-01-11T02:10:40;58.00;;;31.30;;
41139;SDS011;26881;48.784;9.192;2024-01-11T02:16:02;64.40;;;33.40;;
41139;SDS011;26881;48.784;9.192;2024-01-11T02:21:24;71.20;;;32.67;;
41139;SDS011;26881;48.784;9.192;2024-01-11T02:27:02;65.27;;;32.47;;
41139;SDS011;26881;48.784;9.192;2024-01-11T02:32:25;61.97;;;32.83;;
41139;SDS011;26881;48.784;9.192;2024-01-11T02:37:47;72.03;;;35.53;;
41139;SDS011;26881;48.784;9.192;2024-01-11T02:43:10;65.03;;;33.37;;
41139;SDS011;26881;48.784;9.192;2024-01-11T02:48:32;65.23;;;35.40;;
41139;SDS011;26881;48.784;9.192;2024-01-11T02:53:54;68.13;;;33.97;;
41139;SDS011;26881;48.784;9.192;2024-01-11T02:59:16;66.10;;;33.97;;
41139;SDS011;26881;48.784;9.192;2024-01-11T03:04:39;66.87;;;33.30;;
41139;SDS011;26881;48.784;9.192;2024-01-11T03:10:00;60.97;;;32.60;;
41139;SDS011;26881;48.784;9.192;2024-01-11T03:15:22;62.33;;;33.17;;
41139;SDS011;26881;48.784;9.192;2024-01-11T03:20:44;64.67;;;34.57;;
41139;SDS011;26881;48.784;9.192;2024-01-11T03:26:13;66.17;;;33.63;;
41139;SDS011;26881;48.784;9.192;2024-01-11T03:31:36;65.00;;;33.27;;
41139;SDS011;26881;48.784;9.192;2024-01-11T03:36:59;66.07;;;33.50;;
41139;SDS011;26881;48.784;9.192;2024-01-11T03:42:21;68.17;;;33.23;;
41139;SDS011;26881;48.784;9.192;2024-01-11T03:47:43;66.63;;;33.40;;
41139;SDS011;26881;48.784;9.192;2024-01-11T03:53:05;63.57;;;33.10;;
41139;SDS011;26881;48.784;9.192;2024-01-11T03:58:27;72.73;;;35.47;;
41139;SDS011;26881;48.784;9.192;2024-01-11T04:03:48;69.57;;;34.87;;
41139;SDS011;26881;48.784;9.192;2024-01-11T04:09:11;63.27;;;33.63;;
41139;SDS011;26881;48.784;9.192;2024-01-11T04:14:33;64.13;;;34.70;;
41139;SDS011;26881;48.784;9.192;2024-01-11T04:19:55;68.83;;;36.77;;
41139;SDS011;26881;48.784;9.192;2024-01-11T04:25:16;66.50;;;35.57;;
41139;SDS011;26881;48.784;9.192;2024-01-11T04:30:38;71.33;;;35.80;;
41139;SDS011;26881;48.784;9.192;2024-01-11T04:36:00;63.30;;;33.07;;
41139;SDS011;26881;48.784;9.192;2024-01-11T04:41:22;64.20;;;33.40;;
41139;SDS011;26881;48.784;9.192;2024-01-11T04:46:44;69.47;;;35.37;;
41139;SDS011;26881;48.784;9.192;2024-01-11T04:52:06;68.90;;;34.53;;
41139;SDS011;26881;48.784;9.192;2024-01-11T04:57:28;67.83;;;33.83;;
41139;SDS011;26881;48.784;9.192;2024-01-11T05:02:50;70.63;;;33.93;;
41139;SDS011;26881;48.784;9.192;2024-01-11T05:08:11;66.77;;;34.77;;
41139;SDS011;26881;48.784;9.192;2024-01-11T05:13:33;63.07;;;33.63;;
41139;SDS011;26881;48.784;9.192;2024-01-11T05:18:56;64.93;;;32.53;;
41139;SDS011;26881;48.784;9.192;2024-01-11T05:24:19;62.17;;;34.23;;
41139;SDS011;26881;48.784;9.192;2024-01-11T05:29:41;66.37;;;33.00;;
41139;SDS011;26881;48.784;9.192;2024-01-11T05:35:03;72.10;;;35.40;;
41139;SDS011;26881;48.784;9.192;2024-01-11T05:40:25;64.33;;;33.40;;
41139;SDS011;26881;48.784;9.192;2024-01-11T05:45:47;63.47;;;32.63;;
41139;SDS011;26881;48.784;9.192;2024-01-11T05:51:09;80.30;;;35.07;;
41139;SDS011;26881;48.784;9.192;2024-01-11T05:56:31;65.67;;;33.10;;
41139;SDS011;26881;48.784;9.192;2024-01-11T06:01:53;66.43;;;33.30;;
41139;SDS011;26881;48.784;9.192;2024-01-11T06:07:15;68.73;;;35.77;;
41139;SDS011;26881;48.784;9.192;2024-01-11T06:12:37;67.70;;;34.43;;
41139;SDS011;26881;48.784;9.192;2024-01-11T06:17:59;67.90;;;35.17;;
41139;SDS011;26881;48.784;9.192;2024-01-11T06:23:24;74.67;;;35.73;;
41139;SDS011;26881;48.784;9.192;2024-01-11T06:28:47;71.07;;;37.13;;
41139;SDS011;26881;48.784;9.192;2024-01-11T06:34:09;78.97;;;36.03;;
41139;SDS011;26881;48.784;9.192;2024-01-11T06:39:31;69.73;;;34.63;;
41139;SDS011;26881;48.784;9.192;2024-01-11T06:44:53;72.70;;;36.80;;
41139;SDS011;26881;48.784;9.192;2024-01-11T06:50:15;69.60;;;35.63;;
41139;SDS011;26881;48.784;9.192;2024-01-11T06:55:37;64.40;;;33.93;;
41139;SDS011;26881;48.784;9.192;2024-01-11T07:00:59;68.87;;;34.13;;
41139;SDS011;26881;48.784;9.192;2024-01-11T07:06:21;72.30;;;35.70;;
41139;SDS011;26881;48.784;9.192;2024-01-11T07:11:43;67.83;;;33.87;;
41139;SDS011;26881;48.784;9.192;2024-01-11T07:17:06;67.73;;;34.43;;
41139;SDS011;26881;48.784;9.192;2024-01-11T07:22:27;77.77;;;35.63;;
41139;SDS011;26881;48.784;9.192;2024-01-11T07:27:51;75.00;;;34.40;;
41139;SDS011;26881;48.784;9.192;2024-01-11T07:33:13;64.50;;;34.13;;
41139;SDS011;26881;48.784;9.192;2024-01-11T07:38:35;68.93;;;34.17;;
41139;SDS011;26881;48.784;9.192;2024-01-11T07:43:57;67.67;;;34.90;;
41139;SDS011;26881;48.784;9.192;2024-01-11T07:49:21;69.47;;;35.33;;
41139;SDS011;26881;48.784;9.192;2024-01-11T07:54:43;73.17;;;35.73;;
41139;SDS011;26881;48.784;9.192;2024-01-11T08:00:05;69.73;;;35.47;;
41139;SDS011;26881;48.784;9.192;2024-01-11T08:05:30;74.53;;;34.80;;
41139;SDS011;26881;48.784;9.192;2024-01-11T08:10:52;69.03;;;36.50;;
41139;SDS011;26881;48.784;9.192;2024-01-11T08:16:17;67.80;;;34.07;;
41139;SDS011;26881;48.784;9.192;2024-01-11T08:21:40;68.47;;;34.43;;
41139;SDS011;26881;48.784;9.192;2024-01-11T08:27:03;69.07;;;33.70;;
41139;SDS011;26881;48.784;9.192;2024-01-11T08:32:25;70.97;;;34.87;;
41139;SDS011;26881;48.784;9.192;2024-01-11T08:37:53;67.80;;;34.73;;
41139;SDS011;26881;48.784;9.192;2024-01-11T08:43:15;69.03;;;36.37;;
41139;SDS011;26881;48.784;9.192;2024-01-11T08:48:36;67.00;;;33.97;;
41139;SDS011;26881;48.784;9.192;2024-01-11T08:53:59;65.53;;;34.30;;
41139;SDS011;26881;48.784;9.192;2024-01-11T08:59:21;61.63;;;33.27;;
41139;SDS011;26881;48.784;9.192;2024-01-11T09:04:46;64.67;;;33.23;;
41139;SDS011;26881;48.784;9.192;2024-01-11T09:10:09;64.07;;;35.40;;
41139;SDS011;26881;48.784;9.192;2024-01-11T09:15:33;66.50;;;36.20;;
41139;SDS011;26881;48.784;9.192;2024-01-11T09:20:55;69.20;;;35.40;;
41139;SDS011;26881;48.784;9.192;2024-01-11T09:26:17;66.30;;;35.13;;
41139;SDS011;26881;48.784;9.192;2024-01-11T09:31:39;64.37;;;34.60;;
41139;SDS011;26881;48.784;9.192;2024-01-11T09:37:01;65.40;;;35.57;;
41139;SDS011;26881;48.784;9.192;2024-01-11T09:42:25;61.77;;;34.33;;
41139;SDS011;26881;48.784;9.192;2024-01-11T09:47:47;60.80;;;34.33;;
41139;SDS011;26881;48.784;9.192;2024-01-11T09:53:12;59.40;;;33.63;;
41139;SDS011;26881;48.784;9.192;2024-01-11T09:58:34;58.63;;;34.70;;
41139;SDS011;26881;48.784;9.192;2024-01-11T10:04:00;58.57;;;33.90;;
41139;SDS011;26881;48.784;9.192;2024-01-11T10:09:24;57.87;;;34.43;;
41139;SDS011;26881;48.784;9.192;2024-01-11T10:14:48;61.50;;;32.57;;
41139;SDS011;26881;48.784;9.192;2024-01-11T10:20:11;58.47;;;31.43;;
41139;SDS011;26881;48.784;9.192;2024-01-11T10:25:35;51.70;;;32.93;;
41139;SDS011;26881;48.784;9.192;2024-01-11T10:30:58;54.03;;;33.43;;
41139;SDS011;26881;48.784;9.192;2024-01-11T10:36:20;55.10;;;33.03;;
41139;SDS011;26881;48.784;9.192;2024-01-11T10:41:42;56.97;;;34.20;;
41139;SDS011;26881;48.784;9.192;2024-01-11T10:47:09;54.27;;;32.47;;
41139;SDS011;26881;48.784;9.192;2024-01-11T10:52:33;53.27;;;32.93;;
41139;SDS011;26881;48.784;9.192;2024-01-11T10:58:04;52.70;;;31.47;;
41139;SDS011;26881;48.784;9.192;2024-01-11T11:03:26;54.57;;;34.00;;
41139;SDS011;26881;48.784;9.192;2024-01-11T11:08:50;49.73;;;33.17;;
41139;SDS011;26881;48.784;9.192;2024-01-11T11:14:16;50.63;;;34.17;;
41139;SDS011;26881;48.784;9.192;2024-01-11T11:19:39;52.63;;;33.87;;
41139;SDS011;26881;48.784;9.192;2024-01-11T11:25:06;48.28;;;32.47;;
41139;SDS011;26881;48.784;9.192;2024-01-11T11:30:33;50.73;;;32.63;;
41139;SDS011;26881;48.784;9.192;2024-01-11T11:35:59;51.07;;;33.93;;
41139;SDS011;26881;48.784;9.192;2024-01-11T11:41:21;48.00;;;33.53;;
41139;SDS011;26881;48.784;9.192;2024-01-11T11:46:44;47.38;;;32.55;;
41139;SDS011;26881;48.784;9.192;2024-01-11T11:52:13;48.13;;;32.72;;
41139;SDS011;26881;48.784;9.192;2024-01-11T11:57:37;47.60;;;32.17;;
41139;SDS011;26881;48.784;9.192;2024-01-11T12:02:59;51.73;;;33.13;;
41139;SDS011;26881;48.784;9.192;2024-01-11T12:08:24;58.17;;;32.47;;
41139;SDS011;26881;48.784;9.192;2024-01-11T12:13:46;53.30;;;34.10;;
41139;SDS011;26881;48.784;9.192;2024-01-11T12:19:09;54.03;;;34.47;;
41139;SDS011;26881;48.784;9.192;2024-01-11T12:24:31;51.50;;;34.00;;
41139;SDS011;26881;48.784;9.192;2024-01-11T12:29:54;50.20;;;32.10;;
41139;SDS011;26881;48.784;9.192;2024-01-11T12:35:20;43.77;;;30.70;;
41139;SDS011;26881;48.784;9.192;2024-01-11T12:40:43;51.13;;;32.30;;
41139;SDS011;26881;48.784;9.192;2024-01-11T12:46:05;52.67;;;33.27;;
41139;SDS011;26881;48.784;9.192;2024-01-11T12:51:27;52.08;;;34.08;;
41139;SDS011;26881;48.784;9.192;2024-01-11T12:56:49;53.80;;;33.45;;
41139;SDS011;26881;48.784;9.192;2024-01-11T13:02:12;50.13;;;32.72;;
41139;SDS011;26881;48.784;9.192;2024-01-11T13:07:38;48.72;;;33.25;;
41139;SDS011;26881;48.784;9.192;2024-01-11T13:13:00;45.08;;;31.45;;
41139;SDS011;26881;48.784;9.192;2024-01-11T13:18:30;44.78;;;31.27;;
41139;SDS011;26881;48.784;9.192;2024-01-11T13:23:52;53.60;;;33.38;;
41139;SDS011;26881;48.784;9.192;2024-01-11T13:29:15;43.15;;;31.55;;
41139;SDS011;26881;48.784;9.192;2024-01-11T13:34:37;45.72;;;32.33;;
41139;SDS011;26881;48.784;9.192;2024-01-11T13:39:59;44.05;;;31.30;;
41139;SDS011;26881;48.784;9.192;2024-01-11T13:45:22;46.22;;;31.50;;
41139;SDS011;26881;48.784;9.192;2024-01-11T13:50:44;64.13;;;34.05;;
41139;SDS011;26881;48.784;9.192;2024-01-11T13:56:07;49.40;;;31.50;;
41139;SDS011;26881;48.784;9.192;2024-01-11T14:01:29;51.60;;;32.97;;
41139;SDS011;26881;48.784;9.192;2024-01-11T14:06:51;49.93;;;33.50;;
41139;SDS011;26881;48.784;9.192;2024-01-11T14:12:14;101.93;;;37.37;;
41139;SDS011;26881;48.784;9.192;2024-01-11T14:17:38;52.93;;;33.40;;
41139;SDS011;26881;48.784;9.192;2024-01-11T14:23:01;56.20;;;34.17;;
41139;SDS011;26881;48.784;9.192;2024-01-11T14:28:23;52.87;;;33.93;;
41139;SDS011;26881;48.784;9.192;2024-01-11T14:33:46;54.27;;;34.23;;
41139;SDS011;26881;48.784;9.192;2024-01-11T14:39:08;56.27;;;33.27;;
41139;SDS011;26881;48.784;9.192;2024-01-11T14:44:31;55.97;;;32.83;;
41139;SDS011;26881;48.784;9.192;2024-01-11T14:49:53;59.40;;;35.03;;
41139;SDS011;26881;48.784;9.192;2024-01-11T14:55:15;60.90;;;33.87;;
41139;SDS011;26881;48.784;9.192;2024-01-11T15:00:38;59.97;;;35.83;;
41139;SDS011;26881;48.784;9.192;2024-01-11T15:05:59;55.43;;;33.27;;
41139;SDS011;26881;48.784;9.192;2024-01-11T15:11:22;57.10;;;35.60;;
41139;SDS011;26881;48.784;9.192;2024-01-11T15:16:43;59.03;;;34.80;;
41139;SDS011;26881;48.784;9.192;2024-01-11T15:22:09;65.07;;;34.57;;
41139;SDS011;26881;48.784;9.192;2024-01-11T15:27:33;56.67;;;35.30;;
41139;SDS011;26881;48.784;9.192;2024-01-11T15:32:55;55.80;;;34.07;;
41139;SDS011;26881;48.784;9.192;2024-01-11T15:38:23;58.67;;;35.30;;
41139;SDS011;26881;48.784;9.192;2024-01-11T15:43:44;62.10;;;35.03;;
41139;SDS011;26881;48.784;9.192;2024-01-11T15:49:10;59.03;;;34.87;;
41139;SDS011;26881;48.784;9.192;2024-01-11T15:54:33;63.23;;;34.27;;
41139;SDS011;26881;48.784;9.192;2024-01-11T15:59:55;56.73;;;35.47;;
41139;SDS011;26881;48.784;9.192;2024-01-11T16:05:17;68.30;;;36.80;;
41139;SDS011;26881;48.784;9.192;2024-01-11T16:10:40;59.37;;;34.70;;
41139;SDS011;26881;48.784;9.192;2024-01-11T16:16:02;63.30;;;37.37;;
41139;SDS011;26881;48.784;9.192;2024-01-11T16:21:23;68.80;;;36.33;;
41139;SDS011;26881;48.784;9.192;2024-01-11T16:26:50;59.37;;;36.27;;
41139;SDS011;26881;48.784;9.192;2024-01-11T16:32:12;64.53;;;37.63;;
41139;SDS011;26881;48.784;9.192;2024-01-11T16:37:36;69.97;;;37.97;;
41139;SDS011;26881;48.784;9.192;2024-01-11T16:42:58;64.43;;;37.50;;
41139;SDS011;26881;48.784;9.192;2024-01-11T16:48:20;72.00;;;38.50;;
41139;SDS011;26881;48.784;9.192;2024-01-11T16:53:42;65.93;;;38.53;;
41139;SDS011;26881;48.784;9.192;2024-01-11T16:59:08;67.70;;;38.53;;
41139;SDS011;26881;48.784;9.192;2024-01-11T17:04:30;77.93;;;39.93;;
41139;SDS011;26881;48.784;9.192;2024-01-11T17:09:52;66.93;;;36.80;;
41139;SDS011;26881;48.784;9.192;2024-01-11T17:15:14;70.07;;;39.03;;
41139;SDS011;26881;48.784;9.192;2024-01-11T17:20:36;63.93;;;37.67;;
41139;SDS011;26881;48.784;9.192;2024-01-11T17:25:58;63.40;;;37.57;;
41139;SDS011;26881;48.784;9.192;2024-01-11T17:31:21;77.53;;;41.67;;
41139;SDS011;26881;48.784;9.192;2024-01-11T17:36:43;74.07;;;38.70;;
41139;SDS011;26881;48.784;9.192;2024-01-11T17:42:05;73.20;;;39.43;;
41139;SDS011;26881;48.784;9.192;2024-01-11T17:47:27;70.53;;;37.63;;
41139;SDS011;26881;48.784;9.192;2024-01-11T17:52:49;65.57;;;37.53;;
41139;SDS011;26881;48.784;9.192;2024-01-11T17:58:12;72.03;;;39.73;;
41139;SDS011;26881;48.784;9.192;2024-01-11T18:03:34;73.90;;;37.77;;
41139;SDS011;26881;48.784;9.192;2024-01-11T18:08:56;64.63;;;35.67;;
41139;SDS011;26881;48.784;9.192;2024-01-11T18:14:18;61.90;;;36.33;;
41139;SDS011;26881;48.784;9.192;2024-01-11T18:19:40;68.30;;;39.40;;
41139;SDS011;26881;48.784;9.192;2024-01-11T18:25:02;70.33;;;39.87;;
41139;SDS011;26881;48.784;9.192;2024-01-11T18:30:24;72.33;;;38.03;;
41139;SDS011;26881;48.784;9.192;2024-01-11T18:35:47;64.23;;;36.67;;
41139;SDS011;26881;48.784;9.192;2024-01-11T18:41:09;69.07;;;36.87;;
41139;SDS011;26881;48.784;9.192;2024-01-11T18:46:36;61.50;;;35.47;;
41139;SDS011;26881;48.784;9.192;2024-01-11T18:51:59;65.17;;;36.47;;
41139;SDS011;26881;48.784;9.192;2024-01-11T18:57:21;62.53;;;37.70;;
41139;SDS011;26881;48.784;9.192;2024-01-11T19:02:43;64.87;;;36.50;;
41139;SDS011;26881;48.784;9.192;2024-01-11T19:08:07;60.80;;;34.93;;
41139;SDS011;26881;48.784;9.192;2024-01-11T19:13:29;63.47;;;34.13;;
41139;SDS011;26881;48.784;9.192;2024-01-11T19:18:51;61.63;;;35.37;;
41139;SDS011;26881;48.784;9.192;2024-01-11T19:24:14;61.43;;;35.70;;
41139;SDS011;26881;48.784;9.192;2024-01-11T19:29:36;59.90;;;35.23;;
41139;SDS011;26881;48.784;9.192;2024-01-11T19:34:57;67.87;;;35.47;;
41139;SDS011;26881;48.784;9.192;2024-01-11T19:40:19;61.87;;;34.77;;
41139;SDS011;26881;48.784;9.192;2024-01-11T19:45:41;64.27;;;34.80;;
41139;SDS011;26881;48.784;9.192;2024-01-11T19:51:04;61.13;;;33.93;;
41139;SDS011;26881;48.784;9.192;2024-01-11T19:56:31;66.40;;;34.77;;
41139;SDS011;26881;48.784;9.192;2024-01-11T20:01:54;62.97;;;34.77;;
41139;SDS011;26881;48.784;9.192;2024-01-11T20:07:17;65.57;;;34.87;;
41139;SDS011;26881;48.784;9.192;2024-01-11T20:12:39;64.00;;;34.77;;
41139;SDS011;26881;48.784;9.192;2024-01-11T20:18:01;64.23;;;36.23;;
41139;SDS011;26881;48.784;9.192;2024-01-11T20:23:29;60.93;;;36.00;;
41139;SDS011;26881;48.784;9.192;2024-01-11T20:28:51;64.30;;;37.10;;
41139;SDS011;26881;48.784;9.192;2024-01-11T20:34:13;72.53;;;38.60;;
41139;SDS011;26881;48.784;9.192;2024-01-11T20:39:36;90.40;;;43.33;;
41139;SDS011;26881;48.784;9.192;2024-01-11T20:44:59;88.40;;;40.33;;
41139;SDS011;26881;48.784;9.192;2024-01-11T20:50:21;77.70;;;38.83;;
41139;SDS011;26881;48.784;9.192;2024-01-11T20:55:43;63.13;;;34.50;;
41139;SDS011;26881;48.784;9.192;2024-01-11T21:01:06;65.73;;;33.07;;
41139;SDS011;26881;48.784;9.192;2024-01-11T21:06:28;62.97;;;33.67;;
41139;SDS011;26881;48.784;9.192;2024-01-11T21:11:50;59.00;;;32.53;;
41139;SDS011;26881;48.784;9.192;2024-01-11T21:17:12;60.33;;;32.90;;
41139;SDS011;26881;48.784;9.192;2024-01-11T21:22:34;62.37;;;34.03;;
41139;SDS011;26881;48.784;9.192;2024-01-11T21:27:56;61.67;;;33.60;;
41139;SDS011;26881;48.784;9.192;2024-01-11T21:33:18;62.83;;;34.80;;
41139;SDS011;26881;48.784;9.192;2024-01-11T21:38:40;64.57;;;35.30;;
41139;SDS011;26881;48.784;9.192;2024-01-11T21:44:01;65.20;;;35.07;;
41139;SDS011;26881;48.784;9.192;2024-01-11T21:49:23;77.03;;;39.73;;
41139;SDS011;26881;48.784;9.192;2024-01-11T21:54:45;72.93;;;37.40;;
41139;SDS011;26881;48.784;9.192;2024-01-11T22:00:07;74.93;;;35.53;;
41139;SDS011;26881;48.784;9.192;2024-01-11T22:05:30;61.63;;;37.10;;
41139;SDS011;26881;48.784;9.192;2024-01-11T22:10:52;69.37;;;36.67;;
41139;SDS011;26881;48.784;9.192;2024-01-11T22:16:16;65.63;;;34.80;;
41139;SDS011;26881;48.784;9.192;2024-01-11T22:21:38;76.40;;;39.20;;
41139;SDS011;26881;48.784;9.192;2024-01-11T22:27:03;83.90;;;41.30;;
41139;SDS011;26881;48.784;9.192;2024-01-11T22:32:25;70.60;;;36.70;;
41139;SDS011;26881;48.784;9.192;2024-01-11T22:37:47;70.97;;;36.67;;
41139;SDS011;26881;48.784;9.192;2024-01-11T22:43:09;72.90;;;37.67;;
41139;SDS011;26881;48.784;9.192;2024-01-11T22:48:31;69.53;;;36.53;;
41139;SDS011;26881;48.784;9.192;2024-01-11T22:53:53;75.43;;;38.73;;
41139;SDS011;26881;48.784;9.192;2024-01-11T22:59:15;66.87;;;35.50;;
41139;SDS011;26881;48.784;9.192;2024-01-11T23:04:37;69.40;;;36.87;;
41139;SDS011;26881;48.784;9.192;2024-01-11T23:09:58;63.70;;;34.93;;
41139;SDS011;26881;48.784;9.192;2024-01-11T23:15:20;75.50;;;38.27;;
41139;SDS011;26881;48.784;9.192;2024-01-11T23:20:42;72.50;;;37.73;;
41139;SDS011;26881;48.784;9.192;2024-01-11T23:26:04;83.50;;;39.33;;
41139;SDS011;26881;48.784;9.192;2024-01-11T23:31:26;74.97;;;36.30;;
41139;SDS011;26881;48.784;9.192;2024-01-11T23:36:48;72.67;;;37.90;;
41139;SDS011;26881;48.784;9.192;2024-01-11T23:42:10;68.03;;;37.13;;
41139;SDS011;26881;48.784;9.192;2024-01-11T23:47:34;75.70;;;36.83;;
41139;SDS011;26881;48.784;9.192;2024-01-11T23:52:56;75.60;;;37.60;;
41139;SDS011;26881;48.784;9.192;2024-01-11T23:58:18;76.77;;;37.17;;
